Albuquerque, NM

1:33 PM MDT on May 05, 2015 (GMT -0600)
Albuquerque International Sunport | | Change Station
CLOSE
Current Station
Airport
Location: Albuquerque,
Elevation: 5312 ft
Nearby Weather Stations

Elev 5312 ft 35.04 °N, 106.61 °W | Updated 41 minutes ago

Overcast
Overcast
61 °F
Feels Like 61 °F
N
14
Wind Variable Wind from West

Today
High -- | Low -- °F
--% Chance of Precip.
Yesterday
High -- | Low -- °F
Precip. -- in
6:11 AM 7:55 PM
Full, 97% visible
Pressure 29.78 in
Visibility 10.0 miles
Clouds Scattered Clouds 4600 ft
Mostly Cloudy 7000 ft
Mostly Cloudy 18000 ft
Dew Point 40 °F
Humidity 46%
Rainfall 0.00 in
Snow Depth Not available.
UV 7 out of 12
Pollen 4.60 out of 12
Air Quality Not available.
Flu Activity Local Activity
METAR KABQ 051852Z 26012KT 10SM SCT046 BKN070 BKN180 16/04 A2993 RMK AO2 SLP083 VCSH W AND NW MTNS OBSC NE T01610044

More Conditions Fewer Conditions

Pressure 29.78 in
Visibility 10.0 miles
Clouds Scattered Clouds 4600 ft
Mostly Cloudy 7000 ft
Mostly Cloudy 18000 ft
Dew Point 40 °F
Humidity 46%
Rainfall 0.00 in
Snow Depth Not available.
UV 7 out of 12
Pollen 4.60 out of 12
Air Quality Not available.
Flu Activity Local Activity
METAR KABQ 051852Z 26012KT 10SM SCT046 BKN070 BKN180 16/04 A2993 RMK AO2 SLP083 VCSH W AND NW MTNS OBSC NE T01610044

More Conditions Fewer Conditions

10-Day Weather Forecast

Almanac

Astronomy

May. 05, 2015 Rise Set
Actual Time
Civil Twilight
Nautical Twilight
Astronomical Twilight
Moon
Length of Visible Light
Length of Day
Tomorrow will be .
, % of the Moon is Illuminated

Today's Extremes

State Highs State Lows

Community

WunderPhotos

Upload Photos

1,818,957 photos uploaded!

WunderBlogs® & News

Nearby

Air Quality

  Air Quality AQ Index Pollutant
Not available.

Snow Depth

Station Depth Elevation

Earthquake Activity

City Distance Mag. Time & Date
Minimum magnitude displayed is 2.5.

Coastal Water Temperatures

Place Temperature

Stations

Nearby Weather Stations

Station Location Temp. Windchill Dew Point Humidity Wind Precip. Elev Updated Type